CMB853 Details

Departure: Yokota AFB (RJTY)
Arrival: Guam International Airport (PGUM)
Route: XAC B586 UNZ
Notes: USTRANSCOM CONTRACT FLIGHT


Current Weather Information
RJTY 250256Z AUTO M 10SM M M M RMK AO2 SLPNO RVRNO PWINO PNO FZRANO $
PGUM 250254Z 11009KT 10SM CLR 32/23 A2987 RMK AO2 SLP106 T03170228 58014